sensor_id;sensor_type;location;lat;lon;timestamp;P1;durP1;ratioP1;P2;durP2;ratioP2
57752;SDS011;43583;53.132;6.574;2022-09-09T00:00:21;8.52;;;5.68;;
57752;SDS011;43583;53.132;6.574;2022-09-09T00:02:50;8.93;;;6.25;;
57752;SDS011;43583;53.132;6.574;2022-09-09T00:08:43;9.85;;;5.25;;
57752;SDS011;43583;53.132;6.574;2022-09-09T00:11:36;12.75;;;6.55;;
57752;SDS011;43583;53.132;6.574;2022-09-09T00:14:10;10.40;;;5.93;;
57752;SDS011;43583;53.132;6.574;2022-09-09T00:16:43;8.23;;;5.45;;
57752;SDS011;43583;53.132;6.574;2022-09-09T00:21:55;11.60;;;6.50;;
57752;SDS011;43583;53.132;6.574;2022-09-09T00:24:38;12.38;;;6.07;;
57752;SDS011;43583;53.132;6.574;2022-09-09T00:27:27;9.18;;;5.80;;
57752;SDS011;43583;53.132;6.574;2022-09-09T00:30:12;10.48;;;6.20;;
57752;SDS011;43583;53.132;6.574;2022-09-09T00:32:45;8.50;;;6.13;;
57752;SDS011;43583;53.132;6.574;2022-09-09T00:37:44;8.13;;;6.05;;
57752;SDS011;43583;53.132;6.574;2022-09-09T00:40:33;11.02;;;5.55;;
57752;SDS011;43583;53.132;6.574;2022-09-09T00:45:59;11.73;;;6.23;;
57752;SDS011;43583;53.132;6.574;2022-09-09T00:51:25;9.48;;;5.82;;
57752;SDS011;43583;53.132;6.574;2022-09-09T00:54:13;7.20;;;5.45;;
57752;SDS011;43583;53.132;6.574;2022-09-09T00:56:53;8.52;;;5.30;;
57752;SDS011;43583;53.132;6.574;2022-09-09T00:59:51;8.25;;;5.20;;
57752;SDS011;43583;53.132;6.574;2022-09-09T01:11:21;7.85;;;4.93;;
57752;SDS011;43583;53.132;6.574;2022-09-09T01:17:01;7.55;;;4.60;;
57752;SDS011;43583;53.132;6.574;2022-09-09T01:19:37;6.57;;;4.45;;
57752;SDS011;43583;53.132;6.574;2022-09-09T01:25:01;8.02;;;5.00;;
57752;SDS011;43583;53.132;6.574;2022-09-09T01:27:40;5.18;;;3.47;;
57752;SDS011;43583;53.132;6.574;2022-09-09T01:30:11;7.55;;;4.20;;
57752;SDS011;43583;53.132;6.574;2022-09-09T01:32:46;8.05;;;4.95;;
57752;SDS011;43583;53.132;6.574;2022-09-09T01:35:37;6.15;;;3.47;;
57752;SDS011;43583;53.132;6.574;2022-09-09T01:38:12;7.93;;;3.97;;
57752;SDS011;43583;53.132;6.574;2022-09-09T01:40:38;6.38;;;3.75;;
57752;SDS011;43583;53.132;6.574;2022-09-09T01:43:04;6.50;;;3.85;;
57752;SDS011;43583;53.132;6.574;2022-09-09T01:45:31;9.27;;;4.03;;
57752;SDS011;43583;53.132;6.574;2022-09-09T01:47:57;7.20;;;4.53;;
57752;SDS011;43583;53.132;6.574;2022-09-09T01:50:24;8.43;;;4.20;;
57752;SDS011;43583;53.132;6.574;2022-09-09T01:52:52;10.18;;;5.68;;
57752;SDS011;43583;53.132;6.574;2022-09-09T02:04:23;14.57;;;6.43;;
57752;SDS011;43583;53.132;6.574;2022-09-09T02:06:56;10.45;;;5.97;;
57752;SDS011;43583;53.132;6.574;2022-09-09T02:09:22;11.30;;;6.78;;
57752;SDS011;43583;53.132;6.574;2022-09-09T02:11:49;17.30;;;6.97;;
57752;SDS011;43583;53.132;6.574;2022-09-09T02:14:30;14.50;;;6.75;;
57752;SDS011;43583;53.132;6.574;2022-09-09T02:17:09;12.80;;;7.57;;
57752;SDS011;43583;53.132;6.574;2022-09-09T02:19:37;14.95;;;7.13;;
57752;SDS011;43583;53.132;6.574;2022-09-09T02:22:09;17.90;;;7.57;;
57752;SDS011;43583;53.132;6.574;2022-09-09T02:24:36;15.70;;;7.90;;
57752;SDS011;43583;53.132;6.574;2022-09-09T02:27:04;12.48;;;6.97;;
57752;SDS011;43583;53.132;6.574;2022-09-09T02:29:34;11.95;;;7.28;;
57752;SDS011;43583;53.132;6.574;2022-09-09T02:32:07;16.77;;;7.38;;
57752;SDS011;43583;53.132;6.574;2022-09-09T02:34:39;15.07;;;6.57;;
57752;SDS011;43583;53.132;6.574;2022-09-09T02:37:08;15.38;;;7.30;;
57752;SDS011;43583;53.132;6.574;2022-09-09T02:39:35;13.77;;;6.72;;
57752;SDS011;43583;53.132;6.574;2022-09-09T02:42:01;11.93;;;6.93;;
57752;SDS011;43583;53.132;6.574;2022-09-09T02:44:29;10.75;;;6.05;;
57752;SDS011;43583;53.132;6.574;2022-09-09T02:47:10;13.63;;;6.30;;
57752;SDS011;43583;53.132;6.574;2022-09-09T02:55:28;16.58;;;6.68;;
57752;SDS011;43583;53.132;6.574;2022-09-09T02:58:01;10.77;;;5.75;;
57752;SDS011;43583;53.132;6.574;2022-09-09T03:00:31;13.75;;;5.75;;
57752;SDS011;43583;53.132;6.574;2022-09-09T03:02:57;11.88;;;6.13;;
57752;SDS011;43583;53.132;6.574;2022-09-09T03:05:23;8.85;;;5.40;;
57752;SDS011;43583;53.132;6.574;2022-09-09T03:07:49;8.00;;;5.13;;
57752;SDS011;43583;53.132;6.574;2022-09-09T03:10:15;11.45;;;6.47;;
57752;SDS011;43583;53.132;6.574;2022-09-09T03:12:41;10.30;;;4.88;;
57752;SDS011;43583;53.132;6.574;2022-09-09T03:15:07;7.60;;;4.75;;
57752;SDS011;43583;53.132;6.574;2022-09-09T03:17:33;10.93;;;4.57;;
57752;SDS011;43583;53.132;6.574;2022-09-09T03:19:59;8.38;;;4.40;;
57752;SDS011;43583;53.132;6.574;2022-09-09T03:22:24;7.35;;;3.33;;
57752;SDS011;43583;53.132;6.574;2022-09-09T03:24:51;11.63;;;4.15;;
57752;SDS011;43583;53.132;6.574;2022-09-09T03:27:17;8.25;;;4.40;;
57752;SDS011;43583;53.132;6.574;2022-09-09T03:29:44;12.05;;;4.82;;
57752;SDS011;43583;53.132;6.574;2022-09-09T03:32:10;6.55;;;3.63;;
57752;SDS011;43583;53.132;6.574;2022-09-09T03:34:37;7.38;;;3.88;;
57752;SDS011;43583;53.132;6.574;2022-09-09T03:37:06;7.72;;;3.70;;
57752;SDS011;43583;53.132;6.574;2022-09-09T03:39:31;11.15;;;3.22;;
57752;SDS011;43583;53.132;6.574;2022-09-09T03:41:57;7.90;;;3.78;;
57752;SDS011;43583;53.132;6.574;2022-09-09T03:44:22;6.07;;;3.25;;
57752;SDS011;43583;53.132;6.574;2022-09-09T03:46:48;7.32;;;3.60;;
57752;SDS011;43583;53.132;6.574;2022-09-09T03:49:14;5.15;;;2.15;;
57752;SDS011;43583;53.132;6.574;2022-09-09T03:51:40;6.10;;;1.95;;
57752;SDS011;43583;53.132;6.574;2022-09-09T03:54:06;2.40;;;0.90;;
57752;SDS011;43583;53.132;6.574;2022-09-09T03:56:35;4.60;;;1.63;;
57752;SDS011;43583;53.132;6.574;2022-09-09T03:59:01;4.57;;;1.30;;
57752;SDS011;43583;53.132;6.574;2022-09-09T04:01:27;7.45;;;1.75;;
57752;SDS011;43583;53.132;6.574;2022-09-09T04:03:53;4.40;;;0.93;;
57752;SDS011;43583;53.132;6.574;2022-09-09T04:06:20;3.53;;;1.30;;
57752;SDS011;43583;53.132;6.574;2022-09-09T04:08:46;4.07;;;1.05;;
57752;SDS011;43583;53.132;6.574;2022-09-09T04:11:14;4.13;;;1.70;;
57752;SDS011;43583;53.132;6.574;2022-09-09T04:13:40;3.30;;;1.45;;
57752;SDS011;43583;53.132;6.574;2022-09-09T04:16:07;4.35;;;1.10;;
57752;SDS011;43583;53.132;6.574;2022-09-09T04:18:35;4.45;;;1.45;;
57752;SDS011;43583;53.132;6.574;2022-09-09T04:21:01;3.78;;;1.40;;
57752;SDS011;43583;53.132;6.574;2022-09-09T04:23:27;4.57;;;1.08;;
57752;SDS011;43583;53.132;6.574;2022-09-09T04:25:56;3.88;;;1.10;;
57752;SDS011;43583;53.132;6.574;2022-09-09T04:28:24;2.05;;;0.95;;
57752;SDS011;43583;53.132;6.574;2022-09-09T04:30:52;6.72;;;1.83;;
57752;SDS011;43583;53.132;6.574;2022-09-09T04:33:17;3.85;;;1.70;;
57752;SDS011;43583;53.132;6.574;2022-09-09T04:35:44;5.63;;;1.70;;
57752;SDS011;43583;53.132;6.574;2022-09-09T04:38:12;4.75;;;1.63;;
57752;SDS011;43583;53.132;6.574;2022-09-09T04:40:38;4.13;;;2.05;;
57752;SDS011;43583;53.132;6.574;2022-09-09T04:43:07;5.18;;;2.00;;
57752;SDS011;43583;53.132;6.574;2022-09-09T04:45:33;4.55;;;2.00;;
57752;SDS011;43583;53.132;6.574;2022-09-09T04:47:58;3.92;;;2.45;;
57752;SDS011;43583;53.132;6.574;2022-09-09T04:50:24;7.35;;;2.63;;
57752;SDS011;43583;53.132;6.574;2022-09-09T04:52:50;5.00;;;2.33;;
57752;SDS011;43583;53.132;6.574;2022-09-09T04:55:16;5.45;;;2.78;;
57752;SDS011;43583;53.132;6.574;2022-09-09T04:57:41;9.18;;;3.05;;
57752;SDS011;43583;53.132;6.574;2022-09-09T05:00:10;3.90;;;2.83;;
57752;SDS011;43583;53.132;6.574;2022-09-09T05:02:37;5.55;;;3.03;;
57752;SDS011;43583;53.132;6.574;2022-09-09T05:05:03;8.77;;;3.75;;
57752;SDS011;43583;53.132;6.574;2022-09-09T05:07:29;5.60;;;2.92;;
57752;SDS011;43583;53.132;6.574;2022-09-09T05:10:02;4.18;;;2.95;;
57752;SDS011;43583;53.132;6.574;2022-09-09T05:12:30;4.93;;;2.90;;
57752;SDS011;43583;53.132;6.574;2022-09-09T05:14:56;10.45;;;4.00;;
57752;SDS011;43583;53.132;6.574;2022-09-09T05:17:22;8.25;;;4.00;;
57752;SDS011;43583;53.132;6.574;2022-09-09T05:19:48;7.07;;;3.80;;
57752;SDS011;43583;53.132;6.574;2022-09-09T05:22:18;6.40;;;3.35;;
57752;SDS011;43583;53.132;6.574;2022-09-09T05:24:45;7.93;;;4.18;;
57752;SDS011;43583;53.132;6.574;2022-09-09T05:27:11;7.03;;;4.07;;
57752;SDS011;43583;53.132;6.574;2022-09-09T05:29:37;7.43;;;4.78;;
57752;SDS011;43583;53.132;6.574;2022-09-09T05:32:04;7.15;;;4.80;;
57752;SDS011;43583;53.132;6.574;2022-09-09T05:34:30;11.65;;;4.97;;
57752;SDS011;43583;53.132;6.574;2022-09-09T05:36:55;10.45;;;5.60;;
57752;SDS011;43583;53.132;6.574;2022-09-09T05:39:21;9.23;;;4.70;;
57752;SDS011;43583;53.132;6.574;2022-09-09T05:41:46;9.80;;;5.05;;
57752;SDS011;43583;53.132;6.574;2022-09-09T05:44:12;10.95;;;5.00;;
57752;SDS011;43583;53.132;6.574;2022-09-09T05:46:38;11.35;;;4.72;;
57752;SDS011;43583;53.132;6.574;2022-09-09T05:49:04;10.48;;;5.70;;
57752;SDS011;43583;53.132;6.574;2022-09-09T05:51:31;9.13;;;4.90;;
57752;SDS011;43583;53.132;6.574;2022-09-09T05:53:56;8.98;;;5.85;;
57752;SDS011;43583;53.132;6.574;2022-09-09T05:56:25;11.93;;;5.53;;
57752;SDS011;43583;53.132;6.574;2022-09-09T05:58:53;12.60;;;6.15;;
57752;SDS011;43583;53.132;6.574;2022-09-09T06:01:20;11.18;;;5.60;;
57752;SDS011;43583;53.132;6.574;2022-09-09T06:03:48;17.35;;;5.72;;
57752;SDS011;43583;53.132;6.574;2022-09-09T06:06:15;6.97;;;4.93;;
57752;SDS011;43583;53.132;6.574;2022-09-09T06:08:43;9.77;;;4.93;;
57752;SDS011;43583;53.132;6.574;2022-09-09T06:11:14;8.23;;;4.72;;
57752;SDS011;43583;53.132;6.574;2022-09-09T06:13:42;6.78;;;4.28;;
57752;SDS011;43583;53.132;6.574;2022-09-09T06:16:08;7.20;;;4.60;;
57752;SDS011;43583;53.132;6.574;2022-09-09T06:18:38;7.68;;;4.40;;
57752;SDS011;43583;53.132;6.574;2022-09-09T06:21:05;6.85;;;4.50;;
57752;SDS011;43583;53.132;6.574;2022-09-09T06:23:32;7.20;;;4.10;;
57752;SDS011;43583;53.132;6.574;2022-09-09T06:26:05;7.65;;;4.90;;
57752;SDS011;43583;53.132;6.574;2022-09-09T06:28:33;9.02;;;4.93;;
57752;SDS011;43583;53.132;6.574;2022-09-09T06:31:04;7.72;;;4.75;;
57752;SDS011;43583;53.132;6.574;2022-09-09T06:36:02;9.18;;;4.45;;
57752;SDS011;43583;53.132;6.574;2022-09-09T06:38:31;7.20;;;4.53;;
57752;SDS011;43583;53.132;6.574;2022-09-09T06:40:58;6.53;;;4.00;;
57752;SDS011;43583;53.132;6.574;2022-09-09T06:43:25;5.88;;;4.00;;
57752;SDS011;43583;53.132;6.574;2022-09-09T06:45:55;8.43;;;4.15;;
57752;SDS011;43583;53.132;6.574;2022-09-09T06:48:25;6.07;;;4.03;;
57752;SDS011;43583;53.132;6.574;2022-09-09T06:51:14;8.25;;;4.32;;
57752;SDS011;43583;53.132;6.574;2022-09-09T06:53:42;5.57;;;3.05;;
57752;SDS011;43583;53.132;6.574;2022-09-09T06:58:35;5.00;;;3.65;;
57752;SDS011;43583;53.132;6.574;2022-09-09T07:01:07;6.45;;;3.63;;
57752;SDS011;43583;53.132;6.574;2022-09-09T07:03:32;6.43;;;3.25;;
57752;SDS011;43583;53.132;6.574;2022-09-09T07:05:58;3.80;;;2.80;;
57752;SDS011;43583;53.132;6.574;2022-09-09T07:08:25;4.68;;;4.18;;
57752;SDS011;43583;53.132;6.574;2022-09-09T07:10:51;7.38;;;2.90;;
57752;SDS011;43583;53.132;6.574;2022-09-09T07:13:24;4.00;;;3.00;;
57752;SDS011;43583;53.132;6.574;2022-09-09T07:15:50;4.57;;;3.38;;
57752;SDS011;43583;53.132;6.574;2022-09-09T07:18:19;5.72;;;3.40;;
57752;SDS011;43583;53.132;6.574;2022-09-09T07:20:54;4.05;;;3.13;;
57752;SDS011;43583;53.132;6.574;2022-09-09T07:23:21;6.45;;;4.00;;
57752;SDS011;43583;53.132;6.574;2022-09-09T07:25:47;4.82;;;3.00;;
57752;SDS011;43583;53.132;6.574;2022-09-09T07:28:12;4.60;;;3.13;;
57752;SDS011;43583;53.132;6.574;2022-09-09T07:30:38;4.05;;;2.95;;
57752;SDS011;43583;53.132;6.574;2022-09-09T07:33:05;3.75;;;3.20;;
57752;SDS011;43583;53.132;6.574;2022-09-09T07:35:31;4.38;;;2.80;;
57752;SDS011;43583;53.132;6.574;2022-09-09T07:37:57;4.43;;;2.97;;
57752;SDS011;43583;53.132;6.574;2022-09-09T07:40:25;4.18;;;2.38;;
57752;SDS011;43583;53.132;6.574;2022-09-09T07:42:51;3.90;;;2.10;;
57752;SDS011;43583;53.132;6.574;2022-09-09T07:45:17;4.50;;;1.90;;
57752;SDS011;43583;53.132;6.574;2022-09-09T07:47:42;3.53;;;1.92;;
57752;SDS011;43583;53.132;6.574;2022-09-09T07:50:09;4.03;;;2.38;;
57752;SDS011;43583;53.132;6.574;2022-09-09T07:52:34;2.75;;;1.95;;
57752;SDS011;43583;53.132;6.574;2022-09-09T07:55:00;3.00;;;1.75;;
57752;SDS011;43583;53.132;6.574;2022-09-09T07:57:28;7.07;;;1.63;;
57752;SDS011;43583;53.132;6.574;2022-09-09T07:59:55;3.63;;;2.08;;
57752;SDS011;43583;53.132;6.574;2022-09-09T08:02:21;2.58;;;1.80;;
57752;SDS011;43583;53.132;6.574;2022-09-09T08:04:48;3.00;;;1.63;;
57752;SDS011;43583;53.132;6.574;2022-09-09T08:07:13;1.88;;;1.10;;
57752;SDS011;43583;53.132;6.574;2022-09-09T08:09:41;4.03;;;1.58;;
57752;SDS011;43583;53.132;6.574;2022-09-09T08:12:06;2.75;;;1.30;;
57752;SDS011;43583;53.132;6.574;2022-09-09T08:14:33;2.90;;;0.90;;
57752;SDS011;43583;53.132;6.574;2022-09-09T08:16:58;3.60;;;1.13;;
57752;SDS011;43583;53.132;6.574;2022-09-09T08:19:25;1.55;;;0.60;;
57752;SDS011;43583;53.132;6.574;2022-09-09T08:21:53;2.55;;;0.80;;
57752;SDS011;43583;53.132;6.574;2022-09-09T08:24:19;3.20;;;1.40;;
57752;SDS011;43583;53.132;6.574;2022-09-09T08:26:46;2.17;;;1.13;;
57752;SDS011;43583;53.132;6.574;2022-09-09T08:29:14;1.20;;;0.68;;
57752;SDS011;43583;53.132;6.574;2022-09-09T08:31:42;1.40;;;0.82;;
57752;SDS011;43583;53.132;6.574;2022-09-09T08:34:13;2.67;;;1.23;;
57752;SDS011;43583;53.132;6.574;2022-09-09T08:36:39;2.25;;;1.00;;
57752;SDS011;43583;53.132;6.574;2022-09-09T08:39:09;3.67;;;1.27;;
57752;SDS011;43583;53.132;6.574;2022-09-09T08:49:56;2.42;;;0.93;;
57752;SDS011;43583;53.132;6.574;2022-09-09T08:58:05;6.45;;;0.75;;
57752;SDS011;43583;53.132;6.574;2022-09-09T09:03:28;2.28;;;0.80;;
57752;SDS011;43583;53.132;6.574;2022-09-09T09:11:11;3.13;;;0.98;;
57752;SDS011;43583;53.132;6.574;2022-09-09T09:13:43;2.97;;;0.70;;
57752;SDS011;43583;53.132;6.574;2022-09-09T09:18:57;1.95;;;1.20;;
57752;SDS011;43583;53.132;6.574;2022-09-09T09:23:59;3.70;;;0.60;;
57752;SDS011;43583;53.132;6.574;2022-09-09T09:26:30;1.90;;;1.20;;
57752;SDS011;43583;53.132;6.574;2022-09-09T09:28:58;3.85;;;0.65;;
57752;SDS011;43583;53.132;6.574;2022-09-09T09:31:25;2.47;;;0.50;;
57752;SDS011;43583;53.132;6.574;2022-09-09T09:33:54;3.55;;;0.73;;
57752;SDS011;43583;53.132;6.574;2022-09-09T09:36:42;5.50;;;0.52;;
57752;SDS011;43583;53.132;6.574;2022-09-09T09:39:21;4.30;;;0.55;;
57752;SDS011;43583;53.132;6.574;2022-09-09T09:41:48;4.97;;;1.02;;
57752;SDS011;43583;53.132;6.574;2022-09-09T09:44:31;3.25;;;0.70;;
57752;SDS011;43583;53.132;6.574;2022-09-09T09:52:01;2.63;;;0.65;;
57752;SDS011;43583;53.132;6.574;2022-09-09T09:54:29;2.72;;;0.47;;
57752;SDS011;43583;53.132;6.574;2022-09-09T09:56:56;5.13;;;0.40;;
57752;SDS011;43583;53.132;6.574;2022-09-09T09:59:33;2.10;;;0.30;;
57752;SDS011;43583;53.132;6.574;2022-09-09T10:02:13;3.88;;;1.05;;
57752;SDS011;43583;53.132;6.574;2022-09-09T10:04:59;1.75;;;0.32;;
57752;SDS011;43583;53.132;6.574;2022-09-09T10:07:26;1.58;;;0.40;;
57752;SDS011;43583;53.132;6.574;2022-09-09T10:09:55;4.63;;;0.50;;
57752;SDS011;43583;53.132;6.574;2022-09-09T10:13:24;1.75;;;0.50;;
57752;SDS011;43583;53.132;6.574;2022-09-09T10:20:47;3.55;;;0.30;;
57752;SDS011;43583;53.132;6.574;2022-09-09T10:23:46;5.18;;;0.50;;
57752;SDS011;43583;53.132;6.574;2022-09-09T10:26:32;3.15;;;0.47;;
57752;SDS011;43583;53.132;6.574;2022-09-09T10:37:06;3.42;;;0.22;;
57752;SDS011;43583;53.132;6.574;2022-09-09T10:39:43;2.92;;;0.20;;
57752;SDS011;43583;53.132;6.574;2022-09-09T10:42:09;2.95;;;0.63;;
57752;SDS011;43583;53.132;6.574;2022-09-09T10:48:01;1.55;;;0.90;;
57752;SDS011;43583;53.132;6.574;2022-09-09T10:50:47;4.32;;;0.40;;
57752;SDS011;43583;53.132;6.574;2022-09-09T10:53:19;2.97;;;0.28;;
57752;SDS011;43583;53.132;6.574;2022-09-09T10:56:10;5.57;;;0.43;;
57752;SDS011;43583;53.132;6.574;2022-09-09T11:01:22;1.83;;;0.40;;
57752;SDS011;43583;53.132;6.574;2022-09-09T11:03:51;2.30;;;0.28;;
57752;SDS011;43583;53.132;6.574;2022-09-09T11:06:32;4.18;;;0.95;;
57752;SDS011;43583;53.132;6.574;2022-09-09T11:09:04;2.20;;;0.10;;
57752;SDS011;43583;53.132;6.574;2022-09-09T11:11:36;2.38;;;0.10;;
57752;SDS011;43583;53.132;6.574;2022-09-09T11:14:12;7.97;;;0.30;;
57752;SDS011;43583;53.132;6.574;2022-09-09T11:16:50;1.92;;;0.10;;
57752;SDS011;43583;53.132;6.574;2022-09-09T11:19:27;2.78;;;0.25;;
57752;SDS011;43583;53.132;6.574;2022-09-09T11:21:59;1.90;;;0.20;;
57752;SDS011;43583;53.132;6.574;2022-09-09T11:24:41;3.58;;;0.10;;
57752;SDS011;43583;53.132;6.574;2022-09-09T11:27:16;2.80;;;0.10;;
57752;SDS011;43583;53.132;6.574;2022-09-09T11:37:50;2.53;;;0.30;;
57752;SDS011;43583;53.132;6.574;2022-09-09T11:40:30;2.70;;;0.15;;
57752;SDS011;43583;53.132;6.574;2022-09-09T11:43:04;1.83;;;0.10;;
57752;SDS011;43583;53.132;6.574;2022-09-09T11:45:35;4.53;;;0.25;;
57752;SDS011;43583;53.132;6.574;2022-09-09T11:48:01;1.50;;;0.13;;
57752;SDS011;43583;53.132;6.574;2022-09-09T11:53:03;2.15;;;0.20;;
57752;SDS011;43583;53.132;6.574;2022-09-09T11:55:38;1.85;;;0.20;;
57752;SDS011;43583;53.132;6.574;2022-09-09T12:05:57;2.80;;;0.30;;
57752;SDS011;43583;53.132;6.574;2022-09-09T12:08:26;1.45;;;0.10;;
57752;SDS011;43583;53.132;6.574;2022-09-09T12:10:54;1.90;;;0.20;;
57752;SDS011;43583;53.132;6.574;2022-09-09T12:13:21;1.58;;;0.10;;
57752;SDS011;43583;53.132;6.574;2022-09-09T12:15:52;2.40;;;0.22;;
57752;SDS011;43583;53.132;6.574;2022-09-09T12:18:23;4.00;;;0.20;;
57752;SDS011;43583;53.132;6.574;2022-09-09T12:23:41;1.83;;;0.22;;
57752;SDS011;43583;53.132;6.574;2022-09-09T12:26:20;2.13;;;0.10;;
57752;SDS011;43583;53.132;6.574;2022-09-09T12:34:28;2.67;;;0.20;;
57752;SDS011;43583;53.132;6.574;2022-09-09T12:37:52;2.58;;;0.10;;
57752;SDS011;43583;53.132;6.574;2022-09-09T12:39:55;1.20;;;0.20;;
57752;SDS011;43583;53.132;6.574;2022-09-09T12:42:22;3.40;;;0.30;;
57752;SDS011;43583;53.132;6.574;2022-09-09T12:47:48;2.22;;;0.20;;
57752;SDS011;43583;53.132;6.574;2022-09-09T12:50:23;2.08;;;0.10;;
57752;SDS011;43583;53.132;6.574;2022-09-09T12:52:58;3.85;;;0.30;;
57752;SDS011;43583;53.132;6.574;2022-09-09T12:55:30;4.03;;;0.17;;
57752;SDS011;43583;53.132;6.574;2022-09-09T12:58:00;3.22;;;0.40;;
57752;SDS011;43583;53.132;6.574;2022-09-09T13:00:29;3.75;;;0.20;;
57752;SDS011;43583;53.132;6.574;2022-09-09T13:02:57;0.80;;;0.10;;
57752;SDS011;43583;53.132;6.574;2022-09-09T13:08:04;1.95;;;0.20;;
57752;SDS011;43583;53.132;6.574;2022-09-09T13:10:32;1.77;;;0.10;;
57752;SDS011;43583;53.132;6.574;2022-09-09T13:13:03;2.28;;;0.13;;
57752;SDS011;43583;53.132;6.574;2022-09-09T13:15:37;2.92;;;0.20;;
57752;SDS011;43583;53.132;6.574;2022-09-09T13:18:04;1.48;;;0.10;;
57752;SDS011;43583;53.132;6.574;2022-09-09T13:20:36;2.17;;;0.45;;
57752;SDS011;43583;53.132;6.574;2022-09-09T13:23:02;2.63;;;0.20;;
57752;SDS011;43583;53.132;6.574;2022-09-09T13:25:28;1.30;;;0.28;;
57752;SDS011;43583;53.132;6.574;2022-09-09T13:27:59;1.85;;;0.20;;
57752;SDS011;43583;53.132;6.574;2022-09-09T13:35:58;3.50;;;0.30;;
57752;SDS011;43583;53.132;6.574;2022-09-09T13:38:28;1.60;;;0.10;;
57752;SDS011;43583;53.132;6.574;2022-09-09T13:40:58;2.03;;;0.10;;
57752;SDS011;43583;53.132;6.574;2022-09-09T13:43:30;1.25;;;0.10;;
57752;SDS011;43583;53.132;6.574;2022-09-09T13:46:00;0.60;;;0.30;;
57752;SDS011;43583;53.132;6.574;2022-09-09T13:48:28;0.88;;;0.10;;
57752;SDS011;43583;53.132;6.574;2022-09-09T13:50:57;1.85;;;0.00;;
57752;SDS011;43583;53.132;6.574;2022-09-09T13:53:31;1.77;;;0.10;;
57752;SDS011;43583;53.132;6.574;2022-09-09T13:55:58;2.63;;;0.13;;
57752;SDS011;43583;53.132;6.574;2022-09-09T13:58:24;0.75;;;0.03;;
57752;SDS011;43583;53.132;6.574;2022-09-09T14:00:51;0.50;;;0.08;;
57752;SDS011;43583;53.132;6.574;2022-09-09T14:03:18;1.83;;;0.13;;
57752;SDS011;43583;53.132;6.574;2022-09-09T14:05:45;3.95;;;0.20;;
57752;SDS011;43583;53.132;6.574;2022-09-09T14:08:14;1.45;;;0.20;;
57752;SDS011;43583;53.132;6.574;2022-09-09T14:10:46;0.80;;;0.22;;
57752;SDS011;43583;53.132;6.574;2022-09-09T14:13:11;1.33;;;0.10;;
57752;SDS011;43583;53.132;6.574;2022-09-09T14:15:37;3.03;;;0.52;;
57752;SDS011;43583;53.132;6.574;2022-09-09T14:18:03;1.48;;;0.20;;
57752;SDS011;43583;53.132;6.574;2022-09-09T14:20:29;0.90;;;0.20;;
57752;SDS011;43583;53.132;6.574;2022-09-09T14:22:54;1.17;;;0.10;;
57752;SDS011;43583;53.132;6.574;2022-09-09T14:25:21;1.50;;;0.10;;
57752;SDS011;43583;53.132;6.574;2022-09-09T14:27:47;0.80;;;0.00;;
57752;SDS011;43583;53.132;6.574;2022-09-09T14:30:12;1.45;;;0.10;;
57752;SDS011;43583;53.132;6.574;2022-09-09T14:32:38;2.65;;;0.00;;
57752;SDS011;43583;53.132;6.574;2022-09-09T14:35:03;0.57;;;0.00;;
57752;SDS011;43583;53.132;6.574;2022-09-09T14:37:29;0.30;;;0.10;;
57752;SDS011;43583;53.132;6.574;2022-09-09T14:39:56;2.65;;;0.10;;
57752;SDS011;43583;53.132;6.574;2022-09-09T14:42:22;2.78;;;0.00;;
57752;SDS011;43583;53.132;6.574;2022-09-09T14:44:48;1.10;;;0.20;;
57752;SDS011;43583;53.132;6.574;2022-09-09T14:47:13;2.15;;;0.30;;
57752;SDS011;43583;53.132;6.574;2022-09-09T14:49:39;0.75;;;0.00;;
57752;SDS011;43583;53.132;6.574;2022-09-09T14:52:05;0.90;;;0.10;;
57752;SDS011;43583;53.132;6.574;2022-09-09T14:54:31;1.13;;;0.28;;
57752;SDS011;43583;53.132;6.574;2022-09-09T14:56:57;0.98;;;0.10;;
57752;SDS011;43583;53.132;6.574;2022-09-09T14:59:23;2.42;;;0.10;;
57752;SDS011;43583;53.132;6.574;2022-09-09T15:01:49;0.85;;;0.00;;
57752;SDS011;43583;53.132;6.574;2022-09-09T15:04:15;0.73;;;0.10;;
57752;SDS011;43583;53.132;6.574;2022-09-09T15:06:42;2.03;;;0.10;;
57752;SDS011;43583;53.132;6.574;2022-09-09T15:09:09;3.17;;;0.20;;
57752;SDS011;43583;53.132;6.574;2022-09-09T15:11:35;0.68;;;0.00;;
57752;SDS011;43583;53.132;6.574;2022-09-09T15:14:03;1.25;;;0.10;;
57752;SDS011;43583;53.132;6.574;2022-09-09T15:16:29;1.42;;;0.30;;
57752;SDS011;43583;53.132;6.574;2022-09-09T15:18:57;2.97;;;0.40;;
57752;SDS011;43583;53.132;6.574;2022-09-09T15:21:25;1.08;;;0.10;;
57752;SDS011;43583;53.132;6.574;2022-09-09T15:23:55;1.83;;;0.10;;
57752;SDS011;43583;53.132;6.574;2022-09-09T15:26:21;1.35;;;0.10;;
57752;SDS011;43583;53.132;6.574;2022-09-09T15:28:48;0.40;;;0.00;;
57752;SDS011;43583;53.132;6.574;2022-09-09T15:31:21;0.98;;;0.38;;
57752;SDS011;43583;53.132;6.574;2022-09-09T15:34:07;1.10;;;0.10;;
57752;SDS011;43583;53.132;6.574;2022-09-09T15:36:39;0.53;;;0.20;;
57752;SDS011;43583;53.132;6.574;2022-09-09T15:39:07;0.40;;;0.00;;
57752;SDS011;43583;53.132;6.574;2022-09-09T15:41:37;1.90;;;0.00;;
57752;SDS011;43583;53.132;6.574;2022-09-09T15:44:04;1.30;;;0.10;;
57752;SDS011;43583;53.132;6.574;2022-09-09T15:49:19;1.30;;;0.00;;
57752;SDS011;43583;53.132;6.574;2022-09-09T15:51:45;1.38;;;0.90;;
57752;SDS011;43583;53.132;6.574;2022-09-09T15:54:14;0.30;;;0.00;;
57752;SDS011;43583;53.132;6.574;2022-09-09T15:56:42;0.20;;;0.00;;
57752;SDS011;43583;53.132;6.574;2022-09-09T15:59:08;1.40;;;0.10;;
57752;SDS011;43583;53.132;6.574;2022-09-09T16:01:34;0.85;;;0.10;;
57752;SDS011;43583;53.132;6.574;2022-09-09T16:04:00;0.40;;;0.10;;
57752;SDS011;43583;53.132;6.574;2022-09-09T16:06:27;0.30;;;0.00;;
57752;SDS011;43583;53.132;6.574;2022-09-09T16:08:54;1.63;;;0.13;;
57752;SDS011;43583;53.132;6.574;2022-09-09T16:11:23;1.63;;;0.10;;
57752;SDS011;43583;53.132;6.574;2022-09-09T16:13:50;0.40;;;0.08;;
57752;SDS011;43583;53.132;6.574;2022-09-09T16:16:17;0.70;;;0.10;;
57752;SDS011;43583;53.132;6.574;2022-09-09T16:18:47;1.60;;;0.10;;
57752;SDS011;43583;53.132;6.574;2022-09-09T16:21:15;0.30;;;0.08;;
57752;SDS011;43583;53.132;6.574;2022-09-09T16:23:54;1.50;;;0.10;;
57752;SDS011;43583;53.132;6.574;2022-09-09T16:26:20;1.75;;;0.10;;
57752;SDS011;43583;53.132;6.574;2022-09-09T16:28:46;3.58;;;0.10;;
57752;SDS011;43583;53.132;6.574;2022-09-09T16:31:13;2.60;;;0.10;;
57752;SDS011;43583;53.132;6.574;2022-09-09T16:33:44;0.93;;;0.10;;
57752;SDS011;43583;53.132;6.574;2022-09-09T16:36:12;0.82;;;0.28;;
57752;SDS011;43583;53.132;6.574;2022-09-09T16:38:39;1.90;;;0.10;;
57752;SDS011;43583;53.132;6.574;2022-09-09T16:41:06;1.40;;;0.25;;
57752;SDS011;43583;53.132;6.574;2022-09-09T16:43:32;3.60;;;0.10;;
57752;SDS011;43583;53.132;6.574;2022-09-09T16:45:58;1.75;;;0.20;;
57752;SDS011;43583;53.132;6.574;2022-09-09T16:48:26;1.52;;;0.10;;
57752;SDS011;43583;53.132;6.574;2022-09-09T16:51:04;2.47;;;0.28;;
57752;SDS011;43583;53.132;6.574;2022-09-09T16:53:33;4.68;;;0.10;;
57752;SDS011;43583;53.132;6.574;2022-09-09T16:56:08;4.10;;;0.32;;
57752;SDS011;43583;53.132;6.574;2022-09-09T16:58:36;0.73;;;0.17;;
57752;SDS011;43583;53.132;6.574;2022-09-09T17:01:02;1.17;;;0.10;;
57752;SDS011;43583;53.132;6.574;2022-09-09T17:03:28;0.90;;;0.10;;
57752;SDS011;43583;53.132;6.574;2022-09-09T17:05:54;1.77;;;0.10;;
57752;SDS011;43583;53.132;6.574;2022-09-09T17:08:20;1.08;;;0.20;;
57752;SDS011;43583;53.132;6.574;2022-09-09T17:10:45;1.50;;;0.10;;
57752;SDS011;43583;53.132;6.574;2022-09-09T17:13:12;0.93;;;0.20;;
57752;SDS011;43583;53.132;6.574;2022-09-09T17:15:41;1.65;;;0.57;;
57752;SDS011;43583;53.132;6.574;2022-09-09T17:18:08;2.28;;;0.10;;
57752;SDS011;43583;53.132;6.574;2022-09-09T17:20:37;0.93;;;0.20;;